Time;durP1;ratioP1;P1;durP2;ratioP2;P2;SDS_P1;SDS_P2;PMS_P1;PMS_P2;Temp;Humidity;BMP_temperature;BMP_pressure;BME280_temperature;BME280_humidity;BME280_pressure;Samples;Min_cycle;Max_cycle;Signal;HPM_P1;HPM_P2
2021/07/04 00:09:33;;;;;;;10.27;6.57;;;;;;;18.37;77.41;100119.00;20580489;28;20055;-68
2021/07/04 00:19:34;;;;;;;9.45;5.97;;;;;;;18.30;77.66;100116.72;20569482;28;20114;-68
2021/07/04 00:29:36;;;;;;;9.00;5.68;;;;;;;18.20;78.20;100111.94;20579946;28;20076;-68
2021/07/04 00:39:38;;;;;;;8.00;5.80;;;;;;;18.13;78.54;100099.94;20559156;28;20046;-68
2021/07/04 00:49:39;;;;;;;9.80;6.65;;;;;;;17.96;79.60;100091.97;20566890;28;20047;-68
2021/07/04 00:59:41;;;;;;;10.57;7.22;;;;;;;17.84;80.31;100092.63;20558498;28;20050;-68
2021/07/04 01:09:43;;;;;;;11.90;8.25;;;;;;;17.78;80.86;100088.50;20576301;28;20051;-69
2021/07/04 01:19:45;;;;;;;10.68;7.65;;;;;;;17.84;80.19;100077.56;20567159;28;20047;-68
2021/07/04 01:29:47;;;;;;;9.05;6.85;;;;;;;17.87;80.15;100082.72;20587410;28;20047;-68
2021/07/04 01:39:49;;;;;;;11.38;7.20;;;;;;;18.09;79.10;100073.66;20592504;28;20042;-68
2021/07/04 01:49:51;;;;;;;11.38;7.45;;;;;;;18.14;79.44;100085.72;20580340;28;20051;-68
2021/07/04 01:59:55;;;;;;;11.00;7.80;;;;;;;18.03;79.90;100074.00;20590943;28;20417;-68
2021/07/04 02:09:56;;;;;;;12.23;7.30;;;;;;;17.90;80.63;100071.97;20589287;28;20047;-68
2021/07/04 02:19:58;;;;;;;13.43;7.47;;;;;;;17.90;80.62;100065.81;20577969;28;20047;-69
2021/07/04 02:30:00;;;;;;;10.18;7.13;;;;;;;17.90;80.71;100064.00;20588824;28;20214;-68
2021/07/04 02:40:03;;;;;;;10.57;7.45;;;;;;;18.03;80.13;100072.19;20585653;28;20130;-69
2021/07/04 02:50:07;;;;;;;10.68;7.60;;;;;;;17.90;80.62;100060.50;20576749;28;20493;-68
2021/07/04 03:00:13;;;;;;;12.57;8.00;;;;;;;17.87;80.88;100066.84;20585576;28;20039;-68
2021/07/04 03:10:18;;;;;;;11.07;7.90;;;;;;;17.97;80.78;100067.22;20586162;28;20047;-69
2021/07/04 03:20:20;;;;;;;10.10;7.20;;;;;;;18.02;80.56;100059.88;20574271;28;20051;-68
2021/07/04 03:30:23;;;;;;;10.15;7.50;;;;;;;17.95;81.21;100061.97;20582559;28;20046;-68
2021/07/04 03:40:24;;;;;;;13.07;7.50;;;;;;;17.99;80.69;100054.75;20582443;28;20097;-69
2021/07/04 03:50:26;;;;;;;11.45;7.72;;;;;;;18.04;81.43;100060.66;20571099;28;20425;-68
2021/07/04 04:00:28;;;;;;;10.73;7.35;;;;;;;18.23;80.87;100072.94;20581490;28;20057;-68
2021/07/04 04:10:30;;;;;;;11.15;7.60;;;;;;;18.41;80.34;100067.53;20580623;28;20050;-68
2021/07/04 04:20:32;;;;;;;11.20;7.65;;;;;;;18.44;80.21;100072.69;20569252;28;20490;-68
2021/07/04 04:30:35;;;;;;;11.50;8.02;;;;;;;18.53;80.07;100066.00;20578892;28;20046;-69
2021/07/04 04:40:36;;;;;;;11.30;7.13;;;;;;;18.65;79.93;100065.34;20636008;23;20055;-69
2021/07/04 04:50:38;;;;;;;12.23;8.18;;;;;;;18.64;80.25;100054.84;20658508;28;20047;-69
2021/07/04 05:00:40;;;;;;;13.18;8.98;;;;;;;18.88;79.34;100045.56;20656910;28;20050;-69
2021/07/04 05:10:42;;;;;;;13.15;8.98;;;;;;;18.98;78.93;100027.31;20640007;28;20137;-69
2021/07/04 05:20:44;;;;;;;15.38;9.20;;;;;;;19.15;78.38;100016.59;20658245;28;20054;-69
2021/07/04 05:30:46;;;;;;;13.27;8.80;;;;;;;19.46;77.55;100010.38;20656386;28;20047;-69
2021/07/04 05:40:51;;;;;;;11.98;7.93;;;;;;;19.73;75.97;100005.25;20656261;28;20133;-69
2021/07/04 05:50:53;;;;;;;;;;;;;;;20.02;74.26;100001.78;20655379;28;20085;-69
2021/07/04 06:00:55;;;;;;;12.43;7.10;;;;;;;20.15;73.49;99992.97;20654228;28;20323;-69
2021/07/04 06:10:56;;;;;;;10.85;6.80;;;;;;;20.18;73.95;99992.78;20655322;28;20141;-70
2021/07/04 06:20:59;;;;;;;8.77;6.45;;;;;;;20.47;73.20;99996.31;20668230;28;20120;-70
2021/07/04 06:31:00;;;;;;;9.98;6.70;;;;;;;20.43;72.94;100004.53;20666902;28;20050;-69
2021/07/04 06:41:03;;;;;;;7.72;5.72;;;;;;;20.88;71.50;99986.63;20649922;28;20279;-70
2021/07/04 06:51:06;;;;;;;10.48;6.68;;;;;;;20.99;71.16;99986.78;20664912;28;20054;-70
2021/07/04 07:01:08;;;;;;;9.43;6.50;;;;;;;21.54;69.99;99985.78;20646800;28;20050;-70
2021/07/04 07:11:10;;;;;;;9.65;6.55;;;;;;;21.48;69.59;99976.41;20656300;28;20047;-70
2021/07/04 07:21:12;;;;;;;9.25;6.18;;;;;;;21.99;68.29;99970.25;20664572;28;20054;-71
2021/07/04 07:31:13;;;;;;;8.80;5.43;;;;;;;22.64;64.76;99962.06;20663283;28;20516;-71
2021/07/04 07:41:15;;;;;;;10.50;5.80;;;;;;;22.79;64.58;99954.75;20647096;28;20052;-70
2021/07/04 07:51:17;;;;;;;8.88;5.82;;;;;;;21.94;67.21;99943.06;20662318;28;20456;-70
2021/07/04 08:01:19;;;;;;;9.88;6.38;;;;;;;22.68;64.59;99928.84;20661188;28;20046;-70
2021/07/04 08:11:21;;;;;;;8.82;6.25;;;;;;;23.11;62.06;99933.72;20660751;28;20042;-71
2021/07/04 08:21:23;;;;;;;12.02;6.72;;;;;;;23.19;62.07;99920.63;20643032;28;20411;-70
2021/07/04 08:31:25;;;;;;;10.68;7.25;;;;;;;23.41;60.50;99916.31;20658929;28;20043;-71
2021/07/04 08:41:27;;;;;;;11.48;7.65;;;;;;;24.51;57.81;99895.09;20660002;28;20046;-73
2021/07/04 08:51:29;;;;;;;9.88;6.50;;;;;;;24.18;57.63;99901.31;20655962;28;20109;-73
2021/07/04 09:01:31;;;;;;;9.98;6.35;;;;;;;24.66;59.11;99898.34;20657573;28;20070;-72
2021/07/04 09:11:33;;;;;;;8.45;5.82;;;;;;;24.65;59.14;99902.00;20657950;28;20108;-73
2021/07/04 09:21:35;;;;;;;9.27;5.85;;;;;;;24.95;58.06;99881.69;20657254;28;20331;-72
2021/07/04 09:31:40;;;;;;;7.90;5.85;;;;;;;24.57;58.45;99875.84;20655846;28;20129;-72
2021/07/04 09:42:01;;;;;;;12.40;6.57;;;;;;;24.33;59.34;99875.16;20657255;28;20048;-73
2021/07/04 09:52:15;;;;;;;9.45;6.50;;;;;;;24.27;62.97;99875.66;20667767;28;20058;-73
2021/07/04 10:02:18;;;;;;;;;;;;;;;24.03;67.01;99867.78;20670531;28;20100;-72
2021/07/04 10:12:21;;;;;;;9.38;6.13;;;;;;;24.01;67.65;99859.91;20670312;28;19921;-73
2021/07/04 10:22:22;;;;;;;8.98;6.25;;;;;;;24.18;66.55;99855.84;20669865;28;20105;-73
2021/07/04 10:32:24;;;;;;;8.52;6.05;;;;;;;23.73;65.98;99871.94;20669245;28;20471;-74
2021/07/04 10:42:36;;;;;;;7.53;5.30;;;;;;;23.40;67.47;99847.81;20669023;28;20472;-72
2021/07/04 10:52:40;;;;;;;6.63;4.63;;;;;;;23.42;62.73;99830.69;20651176;28;20128;-73
2021/07/04 11:02:56;;;;;;;7.13;4.00;;;;;;;23.65;61.33;99823.56;20664127;28;20058;-73
2021/07/04 11:13:07;;;;;;;6.35;4.40;;;;;;;24.14;60.28;99806.25;20667213;28;20313;-73
2021/07/04 11:23:10;;;;;;;6.72;4.72;;;;;;;23.21;67.33;99835.03;20666384;28;20046;-72
2021/07/04 11:33:36;;;;;;;10.70;5.33;;;;;;;22.57;71.81;99824.75;20665865;28;20108;-71
2021/07/04 11:43:42;;;;;;;9.05;5.38;;;;;;;22.05;75.09;99839.19;20667421;28;20046;-71
2021/07/04 11:53:49;;;;;;;9.75;5.43;;;;;;;21.93;77.07;99826.75;20671246;28;20062;-71
2021/07/04 12:03:55;;;;;;;7.88;4.53;;;;;;;22.12;75.00;99810.28;20661253;28;20050;-71
2021/07/04 12:13:57;;;;;;;6.22;3.55;;;;;;;22.67;72.47;99807.06;20644606;28;20046;-70
2021/07/04 12:23:59;;;;;;;7.38;4.10;;;;;;;23.55;68.88;99777.13;20643245;28;20045;-70
2021/07/04 12:34:01;;;;;;;6.00;3.72;;;;;;;23.91;67.77;99768.03;20788537;23;20053;-81
2021/07/04 12:44:12;;;;;;;4.63;2.80;;;;;;;24.18;64.62;99753.34;20852211;28;20459;-81
2021/07/04 12:54:20;;;;;;;5.05;3.10;;;;;;;23.90;65.36;99741.41;20834278;28;20069;-81
2021/07/04 13:04:23;;;;;;;4.90;3.15;;;;;;;23.93;62.77;99742.00;20798089;28;20511;-82
2021/07/04 13:14:33;;;;;;;4.43;3.03;;;;;;;24.43;62.46;99722.75;20721526;28;20045;-81
2021/07/04 13:24:35;;;;;;;4.65;2.78;;;;;;;25.28;59.89;99726.13;20755563;28;20061;-79
2021/07/04 13:34:38;;;;;;;5.93;3.45;;;;;;;25.01;59.77;99705.25;20764707;28;20108;-81
2021/07/04 13:44:40;;;;;;;7.30;4.03;;;;;;;24.86;57.12;99714.59;20802781;28;20566;-80
2021/07/04 13:54:43;;;;;;;4.15;3.20;;;;;;;24.57;56.34;99725.97;20771463;28;20331;-80
2021/07/04 14:04:45;;;;;;;5.53;3.00;;;;;;;25.66;53.05;99731.75;20757879;23;20116;-67
2021/07/04 14:14:47;;;;;;;4.50;2.83;;;;;;;26.02;52.17;99733.84;20673767;28;20054;-67
2021/07/04 14:24:49;;;;;;;4.65;2.80;;;;;;;24.56;56.45;99750.19;20705957;28;20145;-67
2021/07/04 14:34:51;;;;;;;4.30;2.80;;;;;;;24.83;54.34;99739.81;20687046;28;20109;-68
2021/07/04 14:44:54;;;;;;;5.00;2.92;;;;;;;24.83;54.31;99739.81;20665530;28;20050;-67
2021/07/04 14:54:58;;;;;;;5.57;2.80;;;;;;;24.65;55.33;99743.22;20667504;28;20415;-67
2021/07/04 15:05:00;;;;;;;3.63;1.35;;;;;;;22.75;52.99;99804.66;20709227;28;20045;-68
2021/07/04 15:15:03;;;;;;;7.55;1.08;;;;;;;19.76;67.62;99870.53;20772634;28;20053;-69
2021/07/04 15:25:06;;;;;;;2.08;1.05;;;;;;;18.18;76.13;99862.06;20739180;28;20066;-68
2021/07/04 15:35:10;;;;;;;3.15;1.10;;;;;;;18.40;77.65;99869.66;20684966;28;20089;-68
2021/07/04 15:45:12;;;;;;;;;;;;;;;18.71;76.40;99871.44;20594974;28;20050;-67
2021/07/04 15:55:14;;;;;;;3.75;1.48;;;;;;;18.84;78.56;99873.41;20623462;28;19922;-69
2021/07/04 16:05:16;;;;;;;4.93;1.92;;;;;;;19.11;78.80;99903.59;20625447;28;20047;-68
2021/07/04 16:15:19;;;;;;;5.07;2.30;;;;;;;19.22;78.84;99927.72;20661506;28;20558;-68
2021/07/04 16:25:21;;;;;;;4.45;2.00;;;;;;;19.63;77.74;99916.44;20660047;28;20058;-68
2021/07/04 16:35:24;;;;;;;4.82;1.70;;;;;;;19.96;77.25;99896.72;20657908;28;20566;-68
2021/07/04 16:45:27;;;;;;;7.25;2.40;;;;;;;19.99;76.19;99885.91;20653517;28;20069;-69
2021/07/04 16:55:29;;;;;;;5.75;2.70;;;;;;;19.69;76.65;99873.59;20654628;28;20046;-68
2021/07/04 17:05:31;;;;;;;4.47;2.50;;;;;;;19.50;78.23;99862.38;20673959;28;20042;-68
2021/07/04 17:15:34;;;;;;;6.13;2.00;;;;;;;19.16;77.45;99868.81;20737010;28;20112;-69
2021/07/04 17:25:36;;;;;;;5.18;1.92;;;;;;;19.20;77.90;99873.00;20691114;28;20066;-68
2021/07/04 17:35:38;;;;;;;4.70;2.38;;;;;;;19.10;78.43;99877.16;20671487;28;20524;-69
2021/07/04 17:45:40;;;;;;;3.63;1.70;;;;;;;18.92;77.07;99892.34;20669611;28;20046;-68
2021/07/04 17:55:41;;;;;;;3.10;1.70;;;;;;;19.03;77.76;99897.06;20681289;28;20137;-69
2021/07/04 18:05:43;;;;;;;7.50;2.00;;;;;;;18.92;77.38;99924.19;20688355;28;20043;-70
2021/07/04 18:15:45;;;;;;;4.32;1.90;;;;;;;18.92;75.84;99937.44;20609651;28;20050;-69
2021/07/04 18:25:51;;;;;;;4.63;1.98;;;;;;;18.80;74.91;99960.25;20573371;28;20054;-69
2021/07/04 18:35:53;;;;;;;6.22;2.30;;;;;;;18.80;76.13;99965.56;20576689;28;20058;-68
2021/07/04 18:45:57;;;;;;;3.30;1.50;;;;;;;18.76;76.02;99960.50;20587978;28;20420;-69
2021/07/04 18:55:58;;;;;;;7.10;1.77;;;;;;;18.79;75.98;99960.34;20599521;28;20082;-69
2021/07/04 19:06:04;;;;;;;2.63;1.33;;;;;;;18.63;75.87;99949.69;20670895;28;20101;-68
2021/07/04 19:16:07;;;;;;;3.72;1.30;;;;;;;18.58;76.27;99973.81;20597178;28;20061;-69
2021/07/04 19:26:08;;;;;;;4.78;1.20;;;;;;;18.50;76.88;99975.19;20623074;28;20054;-68
2021/07/04 19:36:10;;;;;;;3.75;1.40;;;;;;;18.33;77.90;99973.47;20713103;28;20042;-69
2021/07/04 19:46:14;;;;;;;2.97;1.33;;;;;;;18.24;77.64;99995.16;20745308;28;20054;-68
2021/07/04 19:56:16;;;;;;;2.92;1.30;;;;;;;17.99;77.62;100016.81;20743189;28;20053;-69
2021/07/04 20:06:17;;;;;;;3.67;1.55;;;;;;;17.84;77.94;100018.47;20691717;28;20116;-69
2021/07/04 20:16:21;;;;;;;4.10;1.38;;;;;;;17.78;78.68;100042.63;20660476;28;20046;-68
2021/07/04 20:26:23;;;;;;;3.47;1.15;;;;;;;17.68;79.70;100050.13;20655653;28;20054;-68
2021/07/04 20:36:25;;;;;;;4.15;1.33;;;;;;;17.72;79.88;100056.13;20709944;28;20108;-68
2021/07/04 20:46:27;;;;;;;5.38;1.42;;;;;;;17.64;79.82;100057.38;20739566;28;20529;-69
2021/07/04 20:56:29;;;;;;;4.70;1.25;;;;;;;17.55;80.63;100056.97;20739198;28;20050;-68
2021/07/04 21:06:31;;;;;;;3.10;0.80;;;;;;;17.42;80.45;100044.34;20683743;28;20046;-68
2021/07/04 21:16:32;;;;;;;2.10;1.20;;;;;;;17.42;80.54;100060.22;20657025;28;20062;-68
2021/07/04 21:26:34;;;;;;;4.18;1.17;;;;;;;17.26;80.99;100063.72;20657231;28;20516;-68
2021/07/04 21:36:38;;;;;;;3.03;1.08;;;;;;;17.11;81.36;100060.88;20656633;28;20097;-68
2021/07/04 21:46:40;;;;;;;2.92;1.10;;;;;;;17.05;81.67;100066.44;20665269;28;20070;-68
2021/07/04 21:56:43;;;;;;;3.17;1.02;;;;;;;16.89;82.58;100065.47;20671393;28;20046;-68
2021/07/04 22:06:45;;;;;;;2.13;0.93;;;;;;;16.96;81.63;100058.06;20670654;28;20073;-69
2021/07/04 22:16:47;;;;;;;3.28;1.17;;;;;;;16.77;82.57;100055.44;20670216;28;20042;-69
2021/07/04 22:26:48;;;;;;;1.63;0.80;;;;;;;16.78;82.02;100043.97;20666344;28;20049;-69
2021/07/04 22:36:50;;;;;;;4.35;1.00;;;;;;;16.71;83.17;100047.78;20666469;28;20043;-70
2021/07/04 22:46:51;;;;;;;2.45;1.10;;;;;;;16.54;83.77;100038.84;20660698;28;20046;-70
2021/07/04 22:56:54;;;;;;;3.83;1.00;;;;;;;16.47;84.25;100047.97;20660813;28;20404;-70
2021/07/04 23:06:56;;;;;;;3.40;1.25;;;;;;;16.39;84.69;100048.34;20665459;28;20046;-70
2021/07/04 23:16:58;;;;;;;3.25;1.10;;;;;;;16.32;84.84;100049.53;20665559;28;20046;-70
2021/07/04 23:27:02;;;;;;;2.83;1.30;;;;;;;16.20;85.45;100044.81;20665133;28;20480;-69
2021/07/04 23:37:04;;;;;;;4.33;1.13;;;;;;;16.15;85.05;100037.09;20663612;28;20043;-69
2021/07/04 23:47:05;;;;;;;2.55;1.10;;;;;;;16.09;85.10;100029.41;20663541;28;20050;-69
2021/07/04 23:57:13;;;;;;;3.42;1.40;;;;;;;16.06;85.35;100042.78;20661934;28;20054;-69
